sensor_id;sensor_type;location;lat;lon;timestamp;P1;durP1;ratioP1;P2;durP2;ratioP2
20896;SDS011;10608;42.600;23.398;2023-05-07T00:02:18;24.27;;;23.17;;
20896;SDS011;10608;42.600;23.398;2023-05-07T00:04:43;28.67;;;27.47;;
20896;SDS011;10608;42.600;23.398;2023-05-07T00:07:09;32.70;;;31.30;;
20896;SDS011;10608;42.600;23.398;2023-05-07T00:09:34;43.93;;;42.07;;
20896;SDS011;10608;42.600;23.398;2023-05-07T00:11:59;39.17;;;37.53;;
20896;SDS011;10608;42.600;23.398;2023-05-07T00:14:24;41.67;;;39.97;;
20896;SDS011;10608;42.600;23.398;2023-05-07T00:16:50;49.53;;;47.40;;
20896;SDS011;10608;42.600;23.398;2023-05-07T00:19:15;37.53;;;35.97;;
20896;SDS011;10608;42.600;23.398;2023-05-07T00:21:40;37.07;;;35.47;;
20896;SDS011;10608;42.600;23.398;2023-05-07T00:24:05;48.60;;;46.50;;
20896;SDS011;10608;42.600;23.398;2023-05-07T00:26:31;45.40;;;43.37;;
20896;SDS011;10608;42.600;23.398;2023-05-07T00:28:56;83.33;;;79.67;;
20896;SDS011;10608;42.600;23.398;2023-05-07T00:31:21;109.50;;;104.63;;
20896;SDS011;10608;42.600;23.398;2023-05-07T00:33:46;98.93;;;94.60;;
20896;SDS011;10608;42.600;23.398;2023-05-07T00:36:12;78.80;;;75.33;;
20896;SDS011;10608;42.600;23.398;2023-05-07T00:38:37;88.00;;;84.27;;
20896;SDS011;10608;42.600;23.398;2023-05-07T00:41:02;88.90;;;85.13;;
20896;SDS011;10608;42.600;23.398;2023-05-07T00:43:27;86.93;;;83.30;;
20896;SDS011;10608;42.600;23.398;2023-05-07T00:45:53;93.00;;;89.00;;
20896;SDS011;10608;42.600;23.398;2023-05-07T00:48:19;108.47;;;103.90;;
20896;SDS011;10608;42.600;23.398;2023-05-07T00:50:44;100.17;;;96.00;;
20896;SDS011;10608;42.600;23.398;2023-05-07T00:53:10;131.80;;;126.37;;
20896;SDS011;10608;42.600;23.398;2023-05-07T00:55:35;118.43;;;113.53;;
20896;SDS011;10608;42.600;23.398;2023-05-07T00:58:01;103.03;;;98.63;;
20896;SDS011;10608;42.600;23.398;2023-05-07T01:00:27;73.43;;;70.33;;
20896;SDS011;10608;42.600;23.398;2023-05-07T01:02:53;56.40;;;54.00;;
20896;SDS011;10608;42.600;23.398;2023-05-07T01:05:20;53.80;;;51.50;;
20896;SDS011;10608;42.600;23.398;2023-05-07T01:07:46;75.10;;;71.90;;
20896;SDS011;10608;42.600;23.398;2023-05-07T01:10:12;88.50;;;84.73;;
20896;SDS011;10608;42.600;23.398;2023-05-07T01:12:37;81.20;;;77.73;;
20896;SDS011;10608;42.600;23.398;2023-05-07T01:15:04;79.30;;;75.90;;
20896;SDS011;10608;42.600;23.398;2023-05-07T01:17:33;56.73;;;54.23;;
20896;SDS011;10608;42.600;23.398;2023-05-07T01:19:58;46.27;;;44.30;;
20896;SDS011;10608;42.600;23.398;2023-05-07T01:22:33;60.17;;;57.63;;
20896;SDS011;10608;42.600;23.398;2023-05-07T01:24:59;65.73;;;62.97;;
20896;SDS011;10608;42.600;23.398;2023-05-07T01:27:26;55.53;;;53.17;;
20896;SDS011;10608;42.600;23.398;2023-05-07T01:29:51;42.30;;;40.57;;
20896;SDS011;10608;42.600;23.398;2023-05-07T01:32:17;44.40;;;42.47;;
20896;SDS011;10608;42.600;23.398;2023-05-07T01:34:44;50.23;;;48.07;;
20896;SDS011;10608;42.600;23.398;2023-05-07T01:37:11;51.90;;;49.70;;
20896;SDS011;10608;42.600;23.398;2023-05-07T01:39:37;47.57;;;45.57;;
20896;SDS011;10608;42.600;23.398;2023-05-07T01:42:03;53.57;;;51.23;;
20896;SDS011;10608;42.600;23.398;2023-05-07T01:44:29;55.27;;;52.87;;
20896;SDS011;10608;42.600;23.398;2023-05-07T01:46:54;60.83;;;58.27;;
20896;SDS011;10608;42.600;23.398;2023-05-07T01:49:20;57.77;;;55.33;;
20896;SDS011;10608;42.600;23.398;2023-05-07T01:51:45;55.50;;;53.20;;
20896;SDS011;10608;42.600;23.398;2023-05-07T01:54:11;52.50;;;50.30;;
20896;SDS011;10608;42.600;23.398;2023-05-07T01:56:36;64.77;;;61.97;;
20896;SDS011;10608;42.600;23.398;2023-05-07T01:59:02;42.97;;;41.17;;
20896;SDS011;10608;42.600;23.398;2023-05-07T02:01:27;46.20;;;44.27;;
20896;SDS011;10608;42.600;23.398;2023-05-07T02:03:52;48.60;;;46.60;;
20896;SDS011;10608;42.600;23.398;2023-05-07T02:06:18;51.13;;;49.00;;
20896;SDS011;10608;42.600;23.398;2023-05-07T02:08:44;53.10;;;50.90;;
20896;SDS011;10608;42.600;23.398;2023-05-07T02:11:09;43.43;;;41.63;;
20896;SDS011;10608;42.600;23.398;2023-05-07T02:13:35;41.97;;;40.27;;
20896;SDS011;10608;42.600;23.398;2023-05-07T02:16:00;36.80;;;35.27;;
20896;SDS011;10608;42.600;23.398;2023-05-07T02:18:25;40.37;;;38.70;;
20896;SDS011;10608;42.600;23.398;2023-05-07T02:20:51;37.97;;;36.40;;
20896;SDS011;10608;42.600;23.398;2023-05-07T02:23:16;40.30;;;38.67;;
20896;SDS011;10608;42.600;23.398;2023-05-07T02:25:41;35.57;;;34.10;;
20896;SDS011;10608;42.600;23.398;2023-05-07T02:28:06;87.80;;;83.90;;
20896;SDS011;10608;42.600;23.398;2023-05-07T02:30:32;40.03;;;38.40;;
20896;SDS011;10608;42.600;23.398;2023-05-07T02:32:57;42.43;;;40.67;;
20896;SDS011;10608;42.600;23.398;2023-05-07T02:35:23;38.10;;;36.50;;
20896;SDS011;10608;42.600;23.398;2023-05-07T02:37:49;46.40;;;44.47;;
20896;SDS011;10608;42.600;23.398;2023-05-07T02:40:14;42.27;;;40.53;;
20896;SDS011;10608;42.600;23.398;2023-05-07T02:42:39;42.67;;;40.93;;
20896;SDS011;10608;42.600;23.398;2023-05-07T02:45:05;40.70;;;39.03;;
20896;SDS011;10608;42.600;23.398;2023-05-07T02:47:30;44.70;;;42.83;;
20896;SDS011;10608;42.600;23.398;2023-05-07T02:49:55;42.30;;;40.53;;
20896;SDS011;10608;42.600;23.398;2023-05-07T02:52:21;48.37;;;46.37;;
20896;SDS011;10608;42.600;23.398;2023-05-07T02:54:46;50.37;;;48.17;;
20896;SDS011;10608;42.600;23.398;2023-05-07T02:57:11;44.43;;;42.53;;
20896;SDS011;10608;42.600;23.398;2023-05-07T02:59:36;41.63;;;39.93;;
20896;SDS011;10608;42.600;23.398;2023-05-07T03:02:02;38.60;;;37.00;;
20896;SDS011;10608;42.600;23.398;2023-05-07T03:04:27;42.27;;;40.47;;
20896;SDS011;10608;42.600;23.398;2023-05-07T03:06:52;36.87;;;35.33;;
20896;SDS011;10608;42.600;23.398;2023-05-07T03:09:17;42.97;;;41.07;;
20896;SDS011;10608;42.600;23.398;2023-05-07T03:11:43;77.03;;;73.53;;
20896;SDS011;10608;42.600;23.398;2023-05-07T03:14:08;37.90;;;36.23;;
20896;SDS011;10608;42.600;23.398;2023-05-07T03:16:33;51.07;;;48.93;;
20896;SDS011;10608;42.600;23.398;2023-05-07T03:18:58;39.23;;;37.60;;
20896;SDS011;10608;42.600;23.398;2023-05-07T03:21:24;36.40;;;34.90;;
20896;SDS011;10608;42.600;23.398;2023-05-07T03:23:49;36.10;;;34.53;;
20896;SDS011;10608;42.600;23.398;2023-05-07T03:26:14;46.83;;;44.80;;
20896;SDS011;10608;42.600;23.398;2023-05-07T03:28:39;37.30;;;35.77;;
20896;SDS011;10608;42.600;23.398;2023-05-07T03:31:05;72.43;;;69.10;;
20896;SDS011;10608;42.600;23.398;2023-05-07T03:33:32;51.20;;;49.00;;
20896;SDS011;10608;42.600;23.398;2023-05-07T03:35:58;49.80;;;47.73;;
20896;SDS011;10608;42.600;23.398;2023-05-07T03:38:23;52.30;;;50.13;;
20896;SDS011;10608;42.600;23.398;2023-05-07T03:40:48;50.17;;;48.00;;
20896;SDS011;10608;42.600;23.398;2023-05-07T03:43:13;50.93;;;48.67;;
20896;SDS011;10608;42.600;23.398;2023-05-07T03:45:39;50.20;;;47.87;;
20896;SDS011;10608;42.600;23.398;2023-05-07T03:48:04;46.53;;;44.53;;
20896;SDS011;10608;42.600;23.398;2023-05-07T03:50:29;48.33;;;46.27;;
20896;SDS011;10608;42.600;23.398;2023-05-07T03:52:56;45.80;;;43.90;;
20896;SDS011;10608;42.600;23.398;2023-05-07T03:55:21;42.53;;;40.63;;
20896;SDS011;10608;42.600;23.398;2023-05-07T03:57:46;42.40;;;40.63;;
20896;SDS011;10608;42.600;23.398;2023-05-07T04:00:12;38.40;;;36.60;;
20896;SDS011;10608;42.600;23.398;2023-05-07T04:02:37;41.93;;;40.13;;
20896;SDS011;10608;42.600;23.398;2023-05-07T04:05:02;58.80;;;56.23;;
20896;SDS011;10608;42.600;23.398;2023-05-07T04:07:28;112.70;;;107.83;;
20896;SDS011;10608;42.600;23.398;2023-05-07T04:09:53;140.10;;;133.40;;
20896;SDS011;10608;42.600;23.398;2023-05-07T04:12:18;81.10;;;77.57;;
20896;SDS011;10608;42.600;23.398;2023-05-07T04:14:43;63.23;;;60.37;;
20896;SDS011;10608;42.600;23.398;2023-05-07T04:17:09;70.10;;;67.13;;
20896;SDS011;10608;42.600;23.398;2023-05-07T04:19:35;35.83;;;33.93;;
20896;SDS011;10608;42.600;23.398;2023-05-07T04:22:01;34.60;;;32.90;;
20896;SDS011;10608;42.600;23.398;2023-05-07T04:24:26;40.07;;;38.33;;
20896;SDS011;10608;42.600;23.398;2023-05-07T04:26:51;42.03;;;40.17;;
20896;SDS011;10608;42.600;23.398;2023-05-07T04:29:17;28.40;;;27.17;;
20896;SDS011;10608;42.600;23.398;2023-05-07T04:31:42;27.67;;;26.37;;
20896;SDS011;10608;42.600;23.398;2023-05-07T04:34:09;37.23;;;35.47;;
20896;SDS011;10608;42.600;23.398;2023-05-07T04:36:35;47.23;;;45.27;;
20896;SDS011;10608;42.600;23.398;2023-05-07T04:39:02;43.17;;;41.40;;
20896;SDS011;10608;42.600;23.398;2023-05-07T04:41:27;56.03;;;53.67;;
20896;SDS011;10608;42.600;23.398;2023-05-07T04:43:53;66.00;;;63.20;;
20896;SDS011;10608;42.600;23.398;2023-05-07T04:46:18;56.37;;;54.00;;
20896;SDS011;10608;42.600;23.398;2023-05-07T04:48:43;63.37;;;60.53;;
20896;SDS011;10608;42.600;23.398;2023-05-07T04:51:09;52.93;;;50.67;;
20896;SDS011;10608;42.600;23.398;2023-05-07T04:53:34;60.40;;;57.70;;
20896;SDS011;10608;42.600;23.398;2023-05-07T04:55:59;112.03;;;107.40;;
20896;SDS011;10608;42.600;23.398;2023-05-07T04:58:24;97.23;;;93.20;;
20896;SDS011;10608;42.600;23.398;2023-05-07T05:00:50;54.47;;;52.20;;
20896;SDS011;10608;42.600;23.398;2023-05-07T05:03:15;40.63;;;38.83;;
20896;SDS011;10608;42.600;23.398;2023-05-07T05:05:40;34.00;;;32.57;;
20896;SDS011;10608;42.600;23.398;2023-05-07T05:08:06;66.57;;;63.60;;
20896;SDS011;10608;42.600;23.398;2023-05-07T05:10:31;79.90;;;76.60;;
20896;SDS011;10608;42.600;23.398;2023-05-07T05:12:56;61.77;;;59.13;;
20896;SDS011;10608;42.600;23.398;2023-05-07T05:15:21;38.33;;;36.67;;
20896;SDS011;10608;42.600;23.398;2023-05-07T05:17:47;35.80;;;34.00;;
20896;SDS011;10608;42.600;23.398;2023-05-07T05:20:12;31.43;;;30.07;;
20896;SDS011;10608;42.600;23.398;2023-05-07T05:22:37;27.90;;;26.67;;
20896;SDS011;10608;42.600;23.398;2023-05-07T05:25:03;25.77;;;24.50;;
20896;SDS011;10608;42.600;23.398;2023-05-07T05:27:28;22.00;;;20.87;;
20896;SDS011;10608;42.600;23.398;2023-05-07T05:29:53;20.83;;;19.87;;
20896;SDS011;10608;42.600;23.398;2023-05-07T05:32:19;22.60;;;21.57;;
20896;SDS011;10608;42.600;23.398;2023-05-07T05:34:44;32.80;;;31.30;;
20896;SDS011;10608;42.600;23.398;2023-05-07T05:37:09;27.03;;;25.80;;
20896;SDS011;10608;42.600;23.398;2023-05-07T05:39:35;23.07;;;22.03;;
20896;SDS011;10608;42.600;23.398;2023-05-07T05:42:01;21.00;;;19.97;;
20896;SDS011;10608;42.600;23.398;2023-05-07T05:44:26;22.00;;;21.00;;
20896;SDS011;10608;42.600;23.398;2023-05-07T05:46:51;31.43;;;30.13;;
20896;SDS011;10608;42.600;23.398;2023-05-07T05:49:19;40.87;;;39.00;;
20896;SDS011;10608;42.600;23.398;2023-05-07T05:51:44;33.27;;;31.77;;
20896;SDS011;10608;42.600;23.398;2023-05-07T05:54:10;62.67;;;60.03;;
20896;SDS011;10608;42.600;23.398;2023-05-07T05:56:36;45.63;;;43.63;;
20896;SDS011;10608;42.600;23.398;2023-05-07T05:59:01;31.10;;;29.63;;
20896;SDS011;10608;42.600;23.398;2023-05-07T06:01:26;66.23;;;63.43;;
20896;SDS011;10608;42.600;23.398;2023-05-07T06:03:52;66.50;;;63.77;;
20896;SDS011;10608;42.600;23.398;2023-05-07T06:06:17;85.30;;;81.80;;
20896;SDS011;10608;42.600;23.398;2023-05-07T06:08:42;45.70;;;43.67;;
20896;SDS011;10608;42.600;23.398;2023-05-07T06:11:07;23.50;;;22.47;;
20896;SDS011;10608;42.600;23.398;2023-05-07T06:13:33;14.63;;;13.80;;
20896;SDS011;10608;42.600;23.398;2023-05-07T06:15:58;15.80;;;15.00;;
20896;SDS011;10608;42.600;23.398;2023-05-07T06:18:23;19.70;;;18.70;;
20896;SDS011;10608;42.600;23.398;2023-05-07T06:20:48;29.77;;;28.40;;
20896;SDS011;10608;42.600;23.398;2023-05-07T06:23:14;30.70;;;29.30;;
20896;SDS011;10608;42.600;23.398;2023-05-07T06:25:39;32.70;;;31.27;;
20896;SDS011;10608;42.600;23.398;2023-05-07T06:28:05;37.07;;;35.37;;
20896;SDS011;10608;42.600;23.398;2023-05-07T06:30:30;32.47;;;30.87;;
20896;SDS011;10608;42.600;23.398;2023-05-07T06:32:55;34.87;;;33.30;;
20896;SDS011;10608;42.600;23.398;2023-05-07T06:35:21;24.63;;;23.57;;
20896;SDS011;10608;42.600;23.398;2023-05-07T06:37:46;36.40;;;34.80;;
20896;SDS011;10608;42.600;23.398;2023-05-07T06:40:11;16.17;;;15.43;;
20896;SDS011;10608;42.600;23.398;2023-05-07T06:42:36;25.47;;;24.37;;
20896;SDS011;10608;42.600;23.398;2023-05-07T06:45:02;21.43;;;20.40;;
20896;SDS011;10608;42.600;23.398;2023-05-07T06:47:28;20.43;;;19.53;;
20896;SDS011;10608;42.600;23.398;2023-05-07T06:49:53;15.93;;;15.13;;
20896;SDS011;10608;42.600;23.398;2023-05-07T06:52:18;11.77;;;11.10;;
20896;SDS011;10608;42.600;23.398;2023-05-07T06:54:44;19.57;;;18.57;;
20896;SDS011;10608;42.600;23.398;2023-05-07T06:57:09;32.13;;;30.60;;
20896;SDS011;10608;42.600;23.398;2023-05-07T06:59:34;30.80;;;29.40;;
20896;SDS011;10608;42.600;23.398;2023-05-07T07:01:59;45.40;;;43.47;;
20896;SDS011;10608;42.600;23.398;2023-05-07T07:04:25;48.83;;;46.77;;
20896;SDS011;10608;42.600;23.398;2023-05-07T07:06:52;30.87;;;29.50;;
20896;SDS011;10608;42.600;23.398;2023-05-07T07:09:17;21.53;;;20.57;;
20896;SDS011;10608;42.600;23.398;2023-05-07T07:11:43;14.90;;;14.10;;
20896;SDS011;10608;42.600;23.398;2023-05-07T07:14:08;11.93;;;11.20;;
20896;SDS011;10608;42.600;23.398;2023-05-07T07:16:33;11.27;;;10.77;;
20896;SDS011;10608;42.600;23.398;2023-05-07T07:18:58;10.60;;;9.97;;
20896;SDS011;10608;42.600;23.398;2023-05-07T07:21:24;8.77;;;8.37;;
20896;SDS011;10608;42.600;23.398;2023-05-07T07:23:49;11.53;;;10.93;;
20896;SDS011;10608;42.600;23.398;2023-05-07T07:26:14;15.13;;;14.43;;
20896;SDS011;10608;42.600;23.398;2023-05-07T07:28:43;12.43;;;11.90;;
20896;SDS011;10608;42.600;23.398;2023-05-07T07:31:08;13.00;;;12.40;;
20896;SDS011;10608;42.600;23.398;2023-05-07T07:33:34;13.87;;;12.97;;
20896;SDS011;10608;42.600;23.398;2023-05-07T07:35:59;13.10;;;12.40;;
20896;SDS011;10608;42.600;23.398;2023-05-07T07:38:24;11.80;;;11.23;;
20896;SDS011;10608;42.600;23.398;2023-05-07T07:40:50;18.83;;;17.97;;
20896;SDS011;10608;42.600;23.398;2023-05-07T07:43:15;27.13;;;25.83;;
20896;SDS011;10608;42.600;23.398;2023-05-07T07:45:40;26.13;;;24.93;;
20896;SDS011;10608;42.600;23.398;2023-05-07T07:48:05;17.20;;;16.33;;
20896;SDS011;10608;42.600;23.398;2023-05-07T07:50:31;15.90;;;15.10;;
20896;SDS011;10608;42.600;23.398;2023-05-07T07:52:56;11.37;;;10.83;;
20896;SDS011;10608;42.600;23.398;2023-05-07T07:55:22;12.57;;;11.90;;
20896;SDS011;10608;42.600;23.398;2023-05-07T07:57:48;15.63;;;14.93;;
20896;SDS011;10608;42.600;23.398;2023-05-07T08:00:14;16.07;;;15.37;;
20896;SDS011;10608;42.600;23.398;2023-05-07T08:02:39;16.33;;;15.60;;
20896;SDS011;10608;42.600;23.398;2023-05-07T08:05:04;13.77;;;12.97;;
20896;SDS011;10608;42.600;23.398;2023-05-07T08:07:30;15.67;;;14.93;;
20896;SDS011;10608;42.600;23.398;2023-05-07T08:09:55;15.10;;;14.30;;
20896;SDS011;10608;42.600;23.398;2023-05-07T08:12:20;19.53;;;18.63;;
20896;SDS011;10608;42.600;23.398;2023-05-07T08:14:46;10.27;;;9.77;;
20896;SDS011;10608;42.600;23.398;2023-05-07T08:17:11;12.07;;;11.50;;
20896;SDS011;10608;42.600;23.398;2023-05-07T08:19:36;19.97;;;19.07;;
20896;SDS011;10608;42.600;23.398;2023-05-07T08:22:02;11.80;;;11.20;;
20896;SDS011;10608;42.600;23.398;2023-05-07T08:24:27;22.87;;;21.77;;
20896;SDS011;10608;42.600;23.398;2023-05-07T08:26:53;12.57;;;11.87;;
20896;SDS011;10608;42.600;23.398;2023-05-07T08:29:18;12.90;;;12.23;;
20896;SDS011;10608;42.600;23.398;2023-05-07T08:31:43;14.10;;;13.50;;
20896;SDS011;10608;42.600;23.398;2023-05-07T08:34:08;22.17;;;21.20;;
20896;SDS011;10608;42.600;23.398;2023-05-07T08:36:34;21.57;;;20.67;;
20896;SDS011;10608;42.600;23.398;2023-05-07T08:38:59;16.03;;;15.23;;
20896;SDS011;10608;42.600;23.398;2023-05-07T08:41:24;11.07;;;10.47;;
20896;SDS011;10608;42.600;23.398;2023-05-07T08:43:50;11.87;;;11.27;;
20896;SDS011;10608;42.600;23.398;2023-05-07T08:46:19;14.10;;;13.40;;
20896;SDS011;10608;42.600;23.398;2023-05-07T08:48:45;12.60;;;12.00;;
20896;SDS011;10608;42.600;23.398;2023-05-07T08:51:12;15.20;;;14.43;;
20896;SDS011;10608;42.600;23.398;2023-05-07T08:53:39;16.47;;;15.67;;
20896;SDS011;10608;42.600;23.398;2023-05-07T08:56:05;11.70;;;11.20;;
20896;SDS011;10608;42.600;23.398;2023-05-07T08:58:30;15.30;;;14.60;;
20896;SDS011;10608;42.600;23.398;2023-05-07T09:00:55;16.30;;;15.50;;
20896;SDS011;10608;42.600;23.398;2023-05-07T09:03:21;16.93;;;16.23;;
20896;SDS011;10608;42.600;23.398;2023-05-07T09:05:46;16.27;;;15.53;;
20896;SDS011;10608;42.600;23.398;2023-05-07T09:08:14;16.07;;;15.37;;
20896;SDS011;10608;42.600;23.398;2023-05-07T09:10:39;13.63;;;13.03;;
20896;SDS011;10608;42.600;23.398;2023-05-07T09:13:05;16.77;;;15.87;;
20896;SDS011;10608;42.600;23.398;2023-05-07T09:15:30;20.47;;;19.30;;
20896;SDS011;10608;42.600;23.398;2023-05-07T09:17:59;19.73;;;18.87;;
20896;SDS011;10608;42.600;23.398;2023-05-07T09:20:25;17.47;;;16.67;;
20896;SDS011;10608;42.600;23.398;2023-05-07T09:22:51;21.93;;;20.93;;
20896;SDS011;10608;42.600;23.398;2023-05-07T09:25:17;18.47;;;17.67;;
20896;SDS011;10608;42.600;23.398;2023-05-07T09:27:52;17.50;;;16.60;;
20896;SDS011;10608;42.600;23.398;2023-05-07T09:30:17;13.10;;;12.40;;
20896;SDS011;10608;42.600;23.398;2023-05-07T09:32:43;14.17;;;13.57;;
20896;SDS011;10608;42.600;23.398;2023-05-07T09:35:14;18.03;;;17.13;;
20896;SDS011;10608;42.600;23.398;2023-05-07T09:37:40;18.10;;;17.30;;
20896;SDS011;10608;42.600;23.398;2023-05-07T09:40:06;13.07;;;12.47;;
20896;SDS011;10608;42.600;23.398;2023-05-07T09:42:32;11.43;;;10.83;;
20896;SDS011;10608;42.600;23.398;2023-05-07T09:44:58;10.77;;;10.17;;
20896;SDS011;10608;42.600;23.398;2023-05-07T09:47:24;11.60;;;11.10;;
20896;SDS011;10608;42.600;23.398;2023-05-07T09:49:50;16.23;;;15.53;;
20896;SDS011;10608;42.600;23.398;2023-05-07T09:52:15;12.90;;;12.33;;
20896;SDS011;10608;42.600;23.398;2023-05-07T09:54:41;18.30;;;17.50;;
20896;SDS011;10608;42.600;23.398;2023-05-07T09:57:10;19.13;;;18.33;;
20896;SDS011;10608;42.600;23.398;2023-05-07T09:59:37;18.63;;;17.80;;
20896;SDS011;10608;42.600;23.398;2023-05-07T10:02:02;48.03;;;46.03;;
20896;SDS011;10608;42.600;23.398;2023-05-07T10:04:28;8.90;;;8.50;;
20896;SDS011;10608;42.600;23.398;2023-05-07T10:06:54;13.97;;;13.33;;
20896;SDS011;10608;42.600;23.398;2023-05-07T10:09:20;30.80;;;29.50;;
20896;SDS011;10608;42.600;23.398;2023-05-07T10:11:46;28.67;;;27.27;;
20896;SDS011;10608;42.600;23.398;2023-05-07T10:14:13;18.17;;;17.37;;
20896;SDS011;10608;42.600;23.398;2023-05-07T10:16:39;15.43;;;14.70;;
20896;SDS011;10608;42.600;23.398;2023-05-07T10:19:05;11.37;;;10.87;;
20896;SDS011;10608;42.600;23.398;2023-05-07T10:21:32;16.23;;;15.53;;
20896;SDS011;10608;42.600;23.398;2023-05-07T10:24:03;27.00;;;25.80;;
20896;SDS011;10608;42.600;23.398;2023-05-07T10:26:31;19.80;;;18.93;;
20896;SDS011;10608;42.600;23.398;2023-05-07T10:29:02;12.77;;;12.27;;
20896;SDS011;10608;42.600;23.398;2023-05-07T10:31:42;14.27;;;13.47;;
20896;SDS011;10608;42.600;23.398;2023-05-07T10:34:13;15.33;;;14.63;;
20896;SDS011;10608;42.600;23.398;2023-05-07T10:36:40;15.17;;;14.47;;
20896;SDS011;10608;42.600;23.398;2023-05-07T10:39:07;16.33;;;15.63;;
20896;SDS011;10608;42.600;23.398;2023-05-07T10:41:32;17.47;;;16.77;;
20896;SDS011;10608;42.600;23.398;2023-05-07T10:43:57;19.73;;;18.87;;
20896;SDS011;10608;42.600;23.398;2023-05-07T10:46:26;19.27;;;18.43;;
20896;SDS011;10608;42.600;23.398;2023-05-07T10:51:26;16.13;;;15.43;;
20896;SDS011;10608;42.600;23.398;2023-05-07T10:56:41;18.60;;;17.80;;
20896;SDS011;10608;42.600;23.398;2023-05-07T11:04:17;31.03;;;29.73;;
20896;SDS011;10608;42.600;23.398;2023-05-07T11:15:05;17.93;;;17.17;;
20896;SDS011;10608;42.600;23.398;2023-05-07T11:17:31;18.43;;;17.63;;
20896;SDS011;10608;42.600;23.398;2023-05-07T11:19:59;19.40;;;18.60;;
20896;SDS011;10608;42.600;23.398;2023-05-07T11:22:35;23.97;;;22.97;;
20896;SDS011;10608;42.600;23.398;2023-05-07T11:25:02;33.83;;;32.40;;
20896;SDS011;10608;42.600;23.398;2023-05-07T11:27:28;37.40;;;35.83;;
20896;SDS011;10608;42.600;23.398;2023-05-07T11:29:54;24.93;;;23.93;;
20896;SDS011;10608;42.600;23.398;2023-05-07T11:32:26;63.70;;;61.10;;
20896;SDS011;10608;42.600;23.398;2023-05-07T11:34:55;30.60;;;29.20;;
20896;SDS011;10608;42.600;23.398;2023-05-07T11:37:20;15.00;;;14.10;;
20896;SDS011;10608;42.600;23.398;2023-05-07T11:39:46;23.57;;;22.50;;
20896;SDS011;10608;42.600;23.398;2023-05-07T11:45:09;35.50;;;33.90;;
20896;SDS011;10608;42.600;23.398;2023-05-07T11:47:35;42.73;;;40.93;;
20896;SDS011;10608;42.600;23.398;2023-05-07T11:50:03;59.77;;;57.27;;
20896;SDS011;10608;42.600;23.398;2023-05-07T11:52:29;48.17;;;45.97;;
20896;SDS011;10608;42.600;23.398;2023-05-07T11:54:56;25.63;;;24.53;;
20896;SDS011;10608;42.600;23.398;2023-05-07T11:57:22;33.87;;;32.47;;
20896;SDS011;10608;42.600;23.398;2023-05-07T11:59:47;42.77;;;40.97;;
20896;SDS011;10608;42.600;23.398;2023-05-07T12:02:16;95.57;;;91.67;;
20896;SDS011;10608;42.600;23.398;2023-05-07T12:04:41;108.70;;;104.17;;
20896;SDS011;10608;42.600;23.398;2023-05-07T12:07:13;106.70;;;102.37;;
20896;SDS011;10608;42.600;23.398;2023-05-07T12:09:39;61.87;;;59.17;;
20896;SDS011;10608;42.600;23.398;2023-05-07T12:12:04;52.77;;;50.53;;
20896;SDS011;10608;42.600;23.398;2023-05-07T12:14:30;49.13;;;46.83;;
20896;SDS011;10608;42.600;23.398;2023-05-07T12:16:55;27.93;;;26.77;;
20896;SDS011;10608;42.600;23.398;2023-05-07T12:19:20;114.93;;;110.27;;
20896;SDS011;10608;42.600;23.398;2023-05-07T12:21:46;92.47;;;88.67;;
20896;SDS011;10608;42.600;23.398;2023-05-07T12:24:11;59.17;;;56.67;;
20896;SDS011;10608;42.600;23.398;2023-05-07T12:26:37;67.63;;;64.83;;
20896;SDS011;10608;42.600;23.398;2023-05-07T12:29:03;85.43;;;81.90;;
20896;SDS011;10608;42.600;23.398;2023-05-07T12:31:28;41.10;;;39.37;;
20896;SDS011;10608;42.600;23.398;2023-05-07T12:33:53;30.10;;;28.80;;
20896;SDS011;10608;42.600;23.398;2023-05-07T12:36:19;33.77;;;32.33;;
20896;SDS011;10608;42.600;23.398;2023-05-07T12:38:46;31.33;;;30.03;;
20896;SDS011;10608;42.600;23.398;2023-05-07T12:41:14;41.10;;;39.40;;
20896;SDS011;10608;42.600;23.398;2023-05-07T12:43:40;55.30;;;52.83;;
20896;SDS011;10608;42.600;23.398;2023-05-07T12:46:08;87.30;;;83.67;;
20896;SDS011;10608;42.600;23.398;2023-05-07T12:48:35;113.23;;;108.63;;
20896;SDS011;10608;42.600;23.398;2023-05-07T12:51:01;93.77;;;89.97;;
20896;SDS011;10608;42.600;23.398;2023-05-07T12:53:27;45.80;;;43.87;;
20896;SDS011;10608;42.600;23.398;2023-05-07T12:55:56;17.83;;;17.03;;
20896;SDS011;10608;42.600;23.398;2023-05-07T12:58:29;40.03;;;38.37;;
20896;SDS011;10608;42.600;23.398;2023-05-07T13:00:55;49.57;;;47.47;;
20896;SDS011;10608;42.600;23.398;2023-05-07T13:05:48;36.83;;;35.23;;
20896;SDS011;10608;42.600;23.398;2023-05-07T13:08:23;48.63;;;46.57;;
20896;SDS011;10608;42.600;23.398;2023-05-07T13:10:48;17.77;;;16.67;;
20896;SDS011;10608;42.600;23.398;2023-05-07T13:13:13;19.07;;;18.27;;
20896;SDS011;10608;42.600;23.398;2023-05-07T13:15:38;25.20;;;23.90;;
20896;SDS011;10608;42.600;23.398;2023-05-07T13:18:04;19.93;;;19.03;;
20896;SDS011;10608;42.600;23.398;2023-05-07T13:20:29;33.20;;;31.80;;
20896;SDS011;10608;42.600;23.398;2023-05-07T13:22:54;35.37;;;33.83;;
20896;SDS011;10608;42.600;23.398;2023-05-07T13:25:19;35.73;;;34.20;;
20896;SDS011;10608;42.600;23.398;2023-05-07T13:27:45;91.03;;;87.33;;
20896;SDS011;10608;42.600;23.398;2023-05-07T13:30:10;142.60;;;136.80;;
20896;SDS011;10608;42.600;23.398;2023-05-07T13:32:35;147.47;;;141.47;;
20896;SDS011;10608;42.600;23.398;2023-05-07T13:35:01;117.10;;;112.20;;
20896;SDS011;10608;42.600;23.398;2023-05-07T13:37:26;118.27;;;113.47;;
20896;SDS011;10608;42.600;23.398;2023-05-07T13:39:51;79.30;;;76.00;;
20896;SDS011;10608;42.600;23.398;2023-05-07T13:42:17;39.43;;;37.73;;
20896;SDS011;10608;42.600;23.398;2023-05-07T13:44:42;37.57;;;35.60;;
20896;SDS011;10608;42.600;23.398;2023-05-07T13:47:08;32.40;;;31.00;;
20896;SDS011;10608;42.600;23.398;2023-05-07T13:49:34;22.00;;;20.70;;
20896;SDS011;10608;42.600;23.398;2023-05-07T13:51:59;15.10;;;14.43;;
20896;SDS011;10608;42.600;23.398;2023-05-07T13:54:24;14.03;;;13.43;;
20896;SDS011;10608;42.600;23.398;2023-05-07T13:56:50;14.47;;;13.67;;
20896;SDS011;10608;42.600;23.398;2023-05-07T13:59:15;21.83;;;20.93;;
20896;SDS011;10608;42.600;23.398;2023-05-07T14:01:40;31.77;;;30.43;;
20896;SDS011;10608;42.600;23.398;2023-05-07T14:04:05;19.00;;;18.10;;
20896;SDS011;10608;42.600;23.398;2023-05-07T14:06:31;44.47;;;42.67;;
20896;SDS011;10608;42.600;23.398;2023-05-07T14:08:56;55.13;;;52.83;;
20896;SDS011;10608;42.600;23.398;2023-05-07T14:11:23;50.67;;;48.57;;
20896;SDS011;10608;42.600;23.398;2023-05-07T14:13:48;46.40;;;44.50;;
20896;SDS011;10608;42.600;23.398;2023-05-07T14:16:13;44.57;;;42.70;;
20896;SDS011;10608;42.600;23.398;2023-05-07T14:18:38;49.93;;;47.87;;
20896;SDS011;10608;42.600;23.398;2023-05-07T14:21:04;24.80;;;23.70;;
20896;SDS011;10608;42.600;23.398;2023-05-07T14:23:31;19.23;;;18.43;;
20896;SDS011;10608;42.600;23.398;2023-05-07T14:25:56;17.17;;;16.47;;